Time;durP1;ratioP1;P1;durP2;ratioP2;P2;SDS_P1;SDS_P2;PMS_P1;PMS_P2;Temp;Humidity;BMP_temperature;BMP_pressure;BME280_temperature;BME280_humidity;BME280_pressure;Samples;Min_cycle;Max_cycle;Signal;HPM_P1;HPM_P2
2022/05/08 00:01:57;;;;;;;6.83;6.23;;;16.10;99.90;;;;;;4994565;28;20233;-58
2022/05/08 00:04:22;;;;;;;7.53;6.63;;;16.10;99.90;;;;;;4992884;28;20173;-58
2022/05/08 00:06:48;;;;;;;7.47;6.77;;;16.10;99.90;;;;;;4994361;28;20278;-57
2022/05/08 00:09:14;;;;;;;6.90;6.30;;;16.20;99.90;;;;;;4994448;28;20223;-55
2022/05/08 00:11:40;;;;;;;7.67;6.70;;;16.10;99.90;;;;;;4994572;28;20173;-56
2022/05/08 00:14:05;;;;;;;7.63;6.93;;;16.10;99.90;;;;;;4994163;28;20303;-57
2022/05/08 00:16:31;;;;;;;7.17;6.53;;;16.10;99.90;;;;;;4987360;28;20202;-58
2022/05/08 00:18:57;;;;;;;7.37;6.77;;;16.10;99.90;;;;;;4975094;28;20182;-58
2022/05/08 00:21:22;;;;;;;7.50;6.80;;;16.10;99.90;;;;;;4974921;28;20210;-55
2022/05/08 00:23:48;;;;;;;7.43;6.70;;;16.10;99.90;;;;;;4974662;28;20174;-59
2022/05/08 00:26:13;;;;;;;8.87;6.83;;;16.10;99.90;;;;;;4974663;28;20202;-55
2022/05/08 00:28:39;;;;;;;7.10;6.50;;;16.00;99.90;;;;;;4974916;28;20628;-58
2022/05/08 00:31:08;;;;;;;8.00;7.20;;;16.00;99.90;;;;;;4974607;28;20174;-57
2022/05/08 00:33:34;;;;;;;7.33;6.63;;;16.00;99.90;;;;;;4974515;28;20240;-56
2022/05/08 00:35:59;;;;;;;9.33;7.17;;;16.00;99.90;;;;;;4974598;28;20202;-53
2022/05/08 00:38:25;;;;;;;7.60;6.90;;;16.00;99.90;;;;;;4974599;28;20170;-60
2022/05/08 00:40:50;;;;;;;7.90;7.20;;;16.00;99.90;;;;;;4974421;28;20252;-57
2022/05/08 00:43:38;;;;;;;7.30;6.70;;;16.00;99.90;;;;;;4974630;28;20170;-57
2022/05/08 00:46:09;;;;;;;7.20;6.60;;;16.00;99.90;;;;;;4974470;28;20198;-56
2022/05/08 00:48:34;;;;;;;7.43;6.73;;;15.90;99.90;;;;;;4973128;28;20170;-53
2022/05/08 00:51:08;;;;;;;10.10;6.57;;;15.90;99.90;;;;;;4972580;28;20221;-57
2022/05/08 00:53:50;;;;;;;7.47;6.77;;;15.90;99.90;;;;;;4972946;28;20648;-57
2022/05/08 00:56:16;;;;;;;7.20;6.60;;;15.90;99.90;;;;;;4973022;28;20222;-61
2022/05/08 00:58:43;;;;;;;8.03;7.30;;;15.90;99.90;;;;;;4974242;28;20659;-57
2022/05/08 01:01:09;;;;;;;8.57;7.17;;;15.80;99.90;;;;;;4974205;28;20196;-58
2022/05/08 01:03:36;;;;;;;7.50;6.90;;;15.80;99.90;;;;;;4973936;28;20540;-57
2022/05/08 01:06:08;;;;;;;8.27;7.47;;;15.90;99.90;;;;;;4973960;28;20650;-59
2022/05/08 01:08:36;;;;;;;7.90;7.17;;;15.90;99.90;;;;;;4974098;28;20544;-57
2022/05/08 01:11:03;;;;;;;7.27;6.67;;;15.90;99.90;;;;;;4974114;28;20265;-57
2022/05/08 01:13:28;;;;;;;7.50;6.80;;;15.80;99.90;;;;;;4973839;28;20189;-57
2022/05/08 01:15:55;;;;;;;8.07;7.37;;;15.80;99.90;;;;;;4974799;28;20190;-56
2022/05/08 01:18:21;;;;;;;7.40;6.70;;;15.80;99.90;;;;;;4993405;28;20169;-56
2022/05/08 01:20:47;;;;;;;7.43;6.73;;;15.70;99.90;;;;;;4993360;28;20576;-57
2022/05/08 01:23:13;;;;;;;7.60;7.00;;;15.80;99.90;;;;;;4993082;28;20192;-56
2022/05/08 01:25:48;;;;;;;7.73;7.03;;;15.80;99.90;;;;;;4992949;28;20181;-56
2022/05/08 01:28:14;;;;;;;8.50;7.70;;;15.70;99.90;;;;;;4993179;28;20173;-58
2022/05/08 01:30:42;;;;;;;7.90;7.20;;;15.70;99.90;;;;;;4993103;28;20170;-58
2022/05/08 01:33:08;;;;;;;7.53;6.83;;;15.70;99.90;;;;;;4993069;28;20542;-59
2022/05/08 01:35:34;;;;;;;7.50;6.90;;;15.70;99.90;;;;;;4992749;28;20653;-56
2022/05/08 01:38:00;;;;;;;7.50;6.80;;;15.70;99.90;;;;;;4992927;28;20292;-59
2022/05/08 01:40:25;;;;;;;7.33;6.73;;;15.70;99.90;;;;;;4992614;28;20264;-57
2022/05/08 01:42:51;;;;;;;7.83;7.13;;;15.70;99.90;;;;;;4992708;28;20275;-57
2022/05/08 01:45:17;;;;;;;7.43;6.73;;;15.70;99.90;;;;;;4992545;28;20263;-58
2022/05/08 01:50:26;;;;;;;7.60;6.80;;;15.70;99.90;;;;;;4992852;28;20555;-57
2022/05/08 01:52:52;;;;;;;7.47;6.77;;;15.60;99.90;;;;;;4992684;28;20182;-57
2022/05/08 01:55:18;;;;;;;7.37;6.67;;;15.60;99.90;;;;;;4992433;28;20229;-57
2022/05/08 01:57:44;;;;;;;8.07;7.27;;;15.60;99.90;;;;;;4992735;28;20181;-59
2022/05/08 02:00:10;;;;;;;7.47;6.60;;;15.60;99.90;;;;;;4992694;28;20178;-57
2022/05/08 02:02:36;;;;;;;8.17;7.37;;;15.60;99.90;;;;;;4992569;28;20625;-58
2022/05/08 02:05:03;;;;;;;8.20;7.50;;;15.60;99.90;;;;;;4991697;28;20185;-58
2022/05/08 02:07:29;;;;;;;7.80;7.03;;;15.50;99.90;;;;;;4992477;28;20181;-56
2022/05/08 02:09:55;;;;;;;8.17;7.47;;;15.60;99.90;;;;;;4991387;28;20177;-58
2022/05/08 02:12:21;;;;;;;8.13;7.40;;;15.60;99.90;;;;;;4992456;28;20181;-59
2022/05/08 02:14:46;;;;;;;8.03;7.33;;;15.60;99.90;;;;;;4991058;28;20196;-55
2022/05/08 02:17:12;;;;;;;8.57;7.77;;;15.50;99.90;;;;;;4992438;28;20219;-55
2022/05/08 02:19:38;;;;;;;8.10;7.40;;;15.50;99.90;;;;;;4991064;28;20189;-58
2022/05/08 02:22:04;;;;;;;8.10;7.40;;;15.50;99.90;;;;;;4991045;28;20621;-60
2022/05/08 02:24:29;;;;;;;8.10;7.40;;;15.50;99.90;;;;;;4992231;28;20532;-52
2022/05/08 02:26:55;;;;;;;7.57;6.87;;;15.50;99.90;;;;;;4994629;28;20199;-54
2022/05/08 02:29:21;;;;;;;7.97;7.27;;;15.50;99.90;;;;;;4995317;28;20213;-52
2022/05/08 02:31:46;;;;;;;7.70;7.10;;;15.50;99.90;;;;;;4996380;28;20193;-56
2022/05/08 02:34:12;;;;;;;8.00;7.20;;;15.60;99.90;;;;;;4994533;28;20247;-56
2022/05/08 02:36:38;;;;;;;8.03;7.20;;;15.50;99.90;;;;;;4996425;28;20288;-57
2022/05/08 02:39:04;;;;;;;7.67;7.00;;;15.50;99.90;;;;;;4995269;28;20557;-58
2022/05/08 02:41:32;;;;;;;8.47;7.40;;;15.50;99.90;;;;;;4995044;28;20209;-58
2022/05/08 02:43:58;;;;;;;7.53;6.83;;;15.50;99.90;;;;;;4994621;28;20177;-59
2022/05/08 02:46:23;;;;;;;8.33;7.63;;;15.50;99.90;;;;;;4995731;28;20272;-55
2022/05/08 02:48:49;;;;;;;8.03;7.33;;;15.50;99.90;;;;;;4994592;28;20558;-59
2022/05/08 02:51:14;;;;;;;7.80;7.03;;;15.50;99.90;;;;;;4995570;28;20590;-55
2022/05/08 02:53:40;;;;;;;7.60;6.90;;;15.50;99.90;;;;;;4994397;28;20177;-59
2022/05/08 02:58:49;;;;;;;7.40;6.80;;;15.50;99.90;;;;;;4996235;28;20260;-59
2022/05/08 03:01:15;;;;;;;7.37;6.77;;;15.50;99.90;;;;;;4995670;28;20670;-58
2022/05/08 03:03:41;;;;;;;7.53;6.80;;;15.40;99.90;;;;;;4995049;28;20169;-59
2022/05/08 03:06:06;;;;;;;8.00;7.30;;;15.40;99.90;;;;;;5051066;23;20280;-59
2022/05/08 03:08:32;;;;;;;7.53;6.87;;;15.30;99.90;;;;;;5011168;28;20208;-56
2022/05/08 03:13:42;;;;;;;7.67;6.97;;;15.50;99.90;;;;;;5008228;28;20227;-55
2022/05/08 03:16:09;;;;;;;7.43;6.83;;;15.50;99.90;;;;;;5014548;28;20188;-51
2022/05/08 03:18:36;;;;;;;7.67;7.07;;;15.40;99.90;;;;;;5014723;28;20181;-58
2022/05/08 03:21:02;;;;;;;8.23;7.43;;;15.50;99.90;;;;;;5014544;28;20215;-55
2022/05/08 03:23:28;;;;;;;7.63;6.93;;;15.50;99.90;;;;;;5014727;28;20259;-61
2022/05/08 03:25:54;;;;;;;7.83;7.13;;;15.50;99.90;;;;;;5014348;28;20259;-57
2022/05/08 03:28:19;;;;;;;8.07;7.27;;;15.40;99.90;;;;;;5014453;28;20196;-60
2022/05/08 03:30:45;;;;;;;8.27;7.57;;;15.50;99.90;;;;;;4996615;28;20203;-58
2022/05/08 03:33:11;;;;;;;8.13;7.43;;;15.50;99.90;;;;;;5014713;28;20184;-57
2022/05/08 03:35:38;;;;;;;7.60;6.90;;;15.50;99.90;;;;;;5014493;28;20219;-57
2022/05/08 03:38:05;;;;;;;7.93;7.23;;;15.50;99.90;;;;;;5013647;28;20215;-54
2022/05/08 03:40:32;;;;;;;8.17;7.47;;;15.40;99.90;;;;;;5014175;28;20164;-54
2022/05/08 03:42:58;;;;;;;8.00;7.20;;;15.40;99.90;;;;;;5014297;28;20188;-56
2022/05/08 03:45:23;;;;;;;7.83;7.23;;;15.40;99.90;;;;;;5013853;28;20188;-59
2022/05/08 03:47:53;;;;;;;8.07;7.37;;;15.40;99.90;;;;;;5014078;28;20570;-56
2022/05/08 03:50:19;;;;;;;7.33;6.63;;;15.50;99.90;;;;;;5014210;28;20173;-55
2022/05/08 03:52:45;;;;;;;7.70;7.07;;;15.50;99.90;;;;;;5014362;28;20260;-60
2022/05/08 03:55:15;;;;;;;8.80;7.90;;;15.50;99.90;;;;;;5014170;28;20271;-57
2022/05/08 03:57:44;;;;;;;7.97;7.27;;;15.50;99.90;;;;;;5013713;28;20203;-57
2022/05/08 04:00:11;;;;;;;8.10;7.40;;;15.80;99.90;;;;;;4996676;28;20182;-59
2022/05/08 04:02:37;;;;;;;7.87;7.20;;;15.40;99.90;;;;;;5014071;28;20200;-57
2022/05/08 04:05:03;;;;;;;7.67;7.07;;;16.00;99.90;;;;;;5013866;28;20665;-56
2022/05/08 04:07:30;;;;;;;8.10;7.40;;;15.40;99.90;;;;;;5013570;28;20218;-55
2022/05/08 04:09:56;;;;;;;8.13;7.43;;;15.50;99.90;;;;;;5014253;28;20204;-57
2022/05/08 04:12:21;;;;;;;7.90;7.20;;;15.50;99.90;;;;;;5013863;28;20822;-56
2022/05/08 04:14:47;;;;;;;8.60;7.50;;;15.50;99.90;;;;;;5013031;28;20189;-53
2022/05/08 04:17:13;;;;;;;8.60;7.80;;;15.50;99.90;;;;;;5013282;28;20211;-56
2022/05/08 04:19:38;;;;;;;8.00;7.30;;;15.50;99.90;;;;;;5013940;28;20188;-59
2022/05/08 04:24:49;;;;;;;7.13;6.53;;;15.60;99.90;;;;;;5013363;28;20176;-58
2022/05/08 04:27:14;;;;;;;8.57;7.87;;;15.60;99.90;;;;;;5013060;28;20188;-55
2022/05/08 04:29:40;;;;;;;8.77;7.93;;;15.60;99.90;;;;;;4996249;28;20633;-53
2022/05/08 04:32:06;;;;;;;8.13;7.33;;;15.60;99.90;;;;;;5013446;28;20177;-57
2022/05/08 04:34:31;;;;;;;7.67;6.97;;;15.60;99.90;;;;;;5013229;28;20251;-56
2022/05/08 04:36:57;;;;;;;8.40;7.60;;;15.60;99.90;;;;;;5012687;28;20208;-52
2022/05/08 04:39:22;;;;;;;8.03;7.33;;;15.60;99.90;;;;;;5012967;28;20596;-58
2022/05/08 04:41:48;;;;;;;8.37;7.67;;;15.70;99.90;;;;;;5013181;28;20570;-56
2022/05/08 04:44:13;;;;;;;8.07;6.90;;;15.70;99.90;;;;;;5013354;28;20164;-52
2022/05/08 04:46:39;;;;;;;8.93;8.20;;;15.80;99.90;;;;;;5012886;28;20220;-55
2022/05/08 04:49:04;;;;;;;8.73;7.83;;;15.80;99.90;;;;;;5012801;28;20176;-56
2022/05/08 04:51:30;;;;;;;8.50;7.70;;;15.80;99.90;;;;;;5012931;28;20515;-53
2022/05/08 04:53:56;;;;;;;8.40;7.70;;;15.80;99.90;;;;;;5013084;28;20172;-56
2022/05/08 04:56:22;;;;;;;8.57;7.77;;;15.80;99.90;;;;;;5012569;28;20211;-52
2022/05/08 04:58:48;;;;;;;8.07;7.37;;;15.90;99.90;;;;;;5013090;28;20176;-54
2022/05/08 05:01:14;;;;;;;8.20;7.50;;;16.00;99.90;;;;;;5013224;28;20201;-54
2022/05/08 05:03:41;;;;;;;8.17;7.43;;;15.90;99.90;;;;;;5012581;28;20227;-55
2022/05/08 05:06:07;;;;;;;7.77;7.13;;;15.80;99.90;;;;;;5012763;28;20657;-54
2022/05/08 05:08:33;;;;;;;7.70;7.00;;;15.90;99.90;;;;;;5012906;28;20224;-53
2022/05/08 05:10:58;;;;;;;8.07;7.37;;;16.10;99.90;;;;;;5012541;28;20196;-54
2022/05/08 05:13:25;;;;;;;7.93;7.20;;;15.90;99.90;;;;;;5012936;28;20181;-55
2022/05/08 05:15:51;;;;;;;9.53;7.57;;;16.00;99.90;;;;;;5012858;28;20165;-56
2022/05/08 05:18:17;;;;;;;8.33;7.63;;;16.00;99.90;;;;;;5012383;28;20192;-55
2022/05/08 05:20:42;;;;;;;7.70;7.10;;;16.10;99.90;;;;;;5012967;28;20646;-59
2022/05/08 05:23:08;;;;;;;8.27;7.47;;;16.20;99.90;;;;;;4994681;28;20176;-54
2022/05/08 05:25:34;;;;;;;8.33;7.63;;;16.20;99.90;;;;;;5011895;28;20687;-52
2022/05/08 05:27:59;;;;;;;7.63;7.03;;;16.20;99.90;;;;;;5012072;28;20207;-53
2022/05/08 05:30:25;;;;;;;8.93;8.13;;;16.20;99.90;;;;;;5012305;28;20203;-56
2022/05/08 05:32:50;;;;;;;8.30;7.60;;;16.20;99.90;;;;;;5012400;28;20535;-55
2022/05/08 05:35:16;;;;;;;8.27;7.47;;;16.20;99.90;;;;;;5012098;28;20192;-55
2022/05/08 05:37:42;;;;;;;7.90;7.10;;;16.20;99.90;;;;;;5012343;28;20200;-58
2022/05/08 05:40:08;;;;;;;9.70;7.73;;;16.30;99.90;;;;;;5012483;28;20177;-56
2022/05/08 05:42:34;;;;;;;7.90;7.20;;;16.30;99.90;;;;;;5012290;28;20207;-59
2022/05/08 05:45:00;;;;;;;8.33;7.57;;;16.30;99.90;;;;;;5012258;28;20169;-59
2022/05/08 05:50:10;;;;;;;8.20;7.50;;;16.30;99.90;;;;;;5012344;28;20187;-54
2022/05/08 05:52:37;;;;;;;8.47;7.67;;;16.40;99.90;;;;;;5011809;28;20176;-57
2022/05/08 05:55:06;;;;;;;7.70;7.00;;;16.30;99.90;;;;;;5012096;28;20169;-55
2022/05/08 05:57:33;;;;;;;8.47;7.77;;;16.30;99.90;;;;;;5011886;28;20196;-54
2022/05/08 05:59:59;;;;;;;8.13;7.33;;;16.50;99.90;;;;;;5011953;28;20680;-64
2022/05/08 06:02:24;;;;;;;7.57;6.93;;;16.40;99.90;;;;;;5011536;28;20240;-55
2022/05/08 06:04:50;;;;;;;7.97;7.27;;;16.40;99.90;;;;;;5011848;28;20191;-53
2022/05/08 06:07:16;;;;;;;8.20;7.40;;;16.40;99.90;;;;;;5011857;28;20204;-56
2022/05/08 06:09:41;;;;;;;8.17;7.37;;;16.40;99.90;;;;;;5011987;28;20723;-58
2022/05/08 06:12:08;;;;;;;7.83;6.97;;;16.40;99.90;;;;;;5012223;28;20270;-57
2022/05/08 06:14:33;;;;;;;7.77;7.13;;;16.50;99.90;;;;;;5011503;28;20550;-52
2022/05/08 06:16:59;;;;;;;7.97;7.27;;;16.50;99.90;;;;;;5011653;28;20204;-54
2022/05/08 06:19:25;;;;;;;8.10;7.40;;;16.50;99.90;;;;;;5011612;28;20203;-55
2022/05/08 06:21:50;;;;;;;8.07;7.33;;;16.50;99.90;;;;;;5009054;28;20223;-61
2022/05/08 06:24:16;;;;;;;8.97;7.30;;;16.50;99.90;;;;;;5009220;28;20207;-54
2022/05/08 06:26:41;;;;;;;7.80;7.10;;;16.60;99.90;;;;;;4993578;28;20216;-54
2022/05/08 06:29:07;;;;;;;7.90;7.20;;;16.60;99.90;;;;;;5011671;28;20650;-55
2022/05/08 06:31:33;;;;;;;7.27;6.67;;;16.60;99.90;;;;;;5011395;28;20203;-60
2022/05/08 06:33:58;;;;;;;7.27;6.67;;;16.60;99.90;;;;;;5011536;28;20189;-56
2022/05/08 06:36:26;;;;;;;7.03;6.33;;;16.70;99.90;;;;;;5011585;28;20561;-54
2022/05/08 06:38:52;;;;;;;7.20;6.60;;;16.70;99.90;;;;;;5011746;28;20184;-57
2022/05/08 06:41:17;;;;;;;9.10;7.23;;;16.80;99.90;;;;;;5011486;28;20288;-55
2022/05/08 06:43:44;;;;;;;7.40;6.80;;;16.80;99.90;;;;;;5011045;28;20263;-56
2022/05/08 06:46:10;;;;;;;6.53;6.03;;;16.70;99.90;;;;;;5011095;28;20234;-60
2022/05/08 06:48:36;;;;;;;7.00;6.40;;;16.80;99.90;;;;;;5011506;28;20666;-55
2022/05/08 06:51:02;;;;;;;6.80;6.20;;;16.90;99.90;;;;;;5011570;28;20222;-56
2022/05/08 06:53:28;;;;;;;6.63;6.03;;;17.00;99.90;;;;;;5011497;28;20195;-61
2022/05/08 06:55:53;;;;;;;6.40;5.90;;;17.00;99.90;;;;;;5011471;28;20653;-53
2022/05/08 06:58:20;;;;;;;6.33;5.80;;;17.00;99.90;;;;;;5011457;28;20263;-55
2022/05/08 07:03:31;;;;;;;6.83;6.23;;;17.10;99.90;;;;;;5011732;28;20720;-49
2022/05/08 07:05:57;;;;;;;6.47;5.63;;;17.20;99.90;;;;;;5006076;28;20181;-54
2022/05/08 07:08:23;;;;;;;6.47;5.70;;;17.30;99.90;;;;;;5003136;28;20241;-52
2022/05/08 07:10:49;;;;;;;6.27;5.77;;;17.30;99.90;;;;;;5003007;28;20563;-53
2022/05/08 07:13:15;;;;;;;6.77;6.17;;;17.40;99.90;;;;;;5005103;28;20168;-51
2022/05/08 07:15:41;;;;;;;6.37;5.77;;;17.50;99.90;;;;;;5001980;28;20177;-54
2022/05/08 07:18:07;;;;;;;5.93;5.50;;;17.60;99.90;;;;;;5013521;28;20739;-57
2022/05/08 07:20:33;;;;;;;6.47;5.87;;;17.60;99.90;;;;;;5013350;28;20637;-54
2022/05/08 07:22:58;;;;;;;5.90;5.40;;;17.70;99.90;;;;;;4997167;28;20199;-55
2022/05/08 07:25:24;;;;;;;6.20;5.70;;;17.80;99.90;;;;;;5014277;28;20557;-49
2022/05/08 07:27:49;;;;;;;6.13;5.63;;;17.90;99.90;;;;;;5014584;28;20213;-54
2022/05/08 07:30:15;;;;;;;5.47;5.07;;;18.00;99.90;;;;;;5014603;28;20184;-55
2022/05/08 07:32:41;;;;;;;6.30;5.80;;;18.10;99.90;;;;;;5014583;28;20188;-53
2022/05/08 07:37:51;;;;;;;6.00;5.50;;;18.40;99.90;;;;;;5014681;28;20207;-57
2022/05/08 07:40:17;;;;;;;6.10;5.50;;;18.50;99.90;;;;;;5014752;28;20188;-54
2022/05/08 07:42:42;;;;;;;6.23;5.57;;;18.70;99.90;;;;;;5014442;28;20223;-54
2022/05/08 07:45:08;;;;;;;5.50;5.10;;;18.90;99.90;;;;;;5014247;28;20169;-54
2022/05/08 07:47:34;;;;;;;5.20;4.80;;;19.00;99.90;;;;;;5014568;28;20208;-57
2022/05/08 07:49:59;;;;;;;5.40;5.00;;;19.00;99.90;;;;;;5014353;28;20557;-55
2022/05/08 07:52:26;;;;;;;5.37;4.90;;;19.20;99.90;;;;;;5014267;28;20708;-52
2022/05/08 07:54:52;;;;;;;5.87;5.37;;;19.20;99.90;;;;;;5005279;28;20193;-59
2022/05/08 07:57:18;;;;;;;5.17;4.77;;;19.20;99.90;;;;;;5014607;28;20262;-52
2022/05/08 07:59:43;;;;;;;5.27;4.87;;;19.20;99.90;;;;;;5014101;28;20210;-53
2022/05/08 08:02:09;;;;;;;5.20;4.80;;;19.20;99.90;;;;;;5014212;28;20204;-56
2022/05/08 08:04:34;;;;;;;5.33;4.83;;;19.10;99.90;;;;;;5014051;28;20720;-51
2022/05/08 08:07:01;;;;;;;5.03;4.63;;;19.10;99.90;;;;;;5013730;28;20738;-55
2022/05/08 08:09:27;;;;;;;6.07;5.57;;;19.10;99.90;;;;;;5014181;28;20686;-50
2022/05/08 08:11:53;;;;;;;5.87;5.37;;;19.00;99.90;;;;;;5013812;28;20181;-50
2022/05/08 08:14:19;;;;;;;7.47;5.57;;;18.90;99.90;;;;;;5013518;28;20188;-55
2022/05/08 08:16:45;;;;;;;6.00;5.50;;;18.80;99.90;;;;;;5013441;28;20669;-51
2022/05/08 08:19:11;;;;;;;6.10;5.60;;;18.80;99.90;;;;;;5013685;28;20179;-53
2022/05/08 08:21:36;;;;;;;5.83;5.33;;;18.80;99.90;;;;;;5003699;28;20212;-52
2022/05/08 08:24:02;;;;;;;5.80;5.17;;;18.70;99.90;;;;;;5002391;28;20204;-59
2022/05/08 08:26:28;;;;;;;6.20;5.70;;;18.60;99.90;;;;;;5006633;28;20275;-53
2022/05/08 08:28:53;;;;;;;5.27;4.87;;;18.60;99.90;;;;;;5001656;28;20186;-54
2022/05/08 08:31:19;;;;;;;7.07;4.90;;;18.50;99.90;;;;;;5003332;28;20172;-51
2022/05/08 08:33:45;;;;;;;5.43;4.97;;;18.50;99.90;;;;;;5001640;28;20263;-54
2022/05/08 08:36:11;;;;;;;5.40;4.97;;;18.40;99.90;;;;;;5001879;28;20694;-51
2022/05/08 08:38:37;;;;;;;5.10;4.60;;;18.40;99.90;;;;;;5003427;28;20184;-52
2022/05/08 08:41:04;;;;;;;5.57;4.97;;;18.40;99.90;;;;;;5001611;28;20622;-57
2022/05/08 08:47:42;;;;;;;4.50;4.20;;;18.40;99.90;;;;;;5001822;28;20519;-49
2022/05/08 08:49:24;;;;;;;5.23;4.83;;;18.60;99.90;;;;;;5002137;28;20268;-55
2022/05/08 08:51:51;;;;;;;5.30;4.80;;;18.70;99.90;;;;;;5003279;28;20639;-53
2022/05/08 08:54:19;;;;;;;5.37;4.50;;;18.60;99.90;;;;;;5018289;28;20181;-55
2022/05/08 08:56:45;;;;;;;5.17;4.77;;;18.40;99.90;;;;;;5011108;28;20192;-53
2022/05/08 08:59:10;;;;;;;5.73;5.13;;;18.20;99.90;;;;;;5004850;28;20581;-56
2022/05/08 09:01:43;;;;;;;5.17;4.63;;;18.10;99.90;;;;;;5005680;28;20665;-54
2022/05/08 09:04:10;;;;;;;4.87;4.40;;;18.20;99.90;;;;;;5004816;28;20165;-56
2022/05/08 09:06:40;;;;;;;5.70;5.10;;;18.40;99.90;;;;;;5005727;28;20275;-58
2022/05/08 09:09:26;;;;;;;5.13;4.50;;;18.40;99.90;;;;;;5005195;28;20169;-56
2022/05/08 09:11:55;;;;;;;5.30;4.43;;;18.40;99.90;;;;;;5003253;28;20173;-55
2022/05/08 09:14:35;;;;;;;5.00;4.60;;;18.30;99.90;;;;;;5004293;28;20254;-58
2022/05/08 09:17:04;;;;;;;4.87;4.47;;;18.20;99.90;;;;;;5010413;28;20703;-58
2022/05/08 09:19:37;;;;;;;6.07;4.50;;;18.20;99.90;;;;;;5010007;28;20205;-56
2022/05/08 09:22:04;;;;;;;4.70;4.30;;;18.20;99.90;;;;;;5005001;28;20197;-55
2022/05/08 09:24:30;;;;;;;4.57;4.17;;;18.20;99.90;;;;;;5005266;28;20204;-52
2022/05/08 09:27:13;;;;;;;5.80;5.20;;;18.50;99.90;;;;;;5001698;28;20200;-56
2022/05/08 09:29:39;;;;;;;5.50;4.97;;;18.20;99.90;;;;;;4999474;28;20534;-56
2022/05/08 09:32:06;;;;;;;4.77;4.40;;;18.10;99.90;;;;;;4995351;28;20166;-56
2022/05/08 09:34:57;;;;;;;5.03;4.53;;;18.30;99.90;;;;;;4995619;28;20184;-56
2022/05/08 09:37:24;;;;;;;5.13;4.70;;;18.50;99.90;;;;;;4994008;28;20702;-60
2022/05/08 09:39:50;;;;;;;5.80;5.30;;;18.60;99.90;;;;;;4992961;28;20254;-55
2022/05/08 09:42:35;;;;;;;5.50;5.10;;;18.50;99.90;;;;;;5011550;28;20204;-58
2022/05/08 09:45:08;;;;;;;6.17;5.57;;;18.40;99.90;;;;;;5011485;28;20180;-55
2022/05/08 09:47:42;;;;;;;5.33;4.83;;;18.30;99.90;;;;;;5011827;28;20196;-57
2022/05/08 09:50:09;;;;;;;6.80;6.10;;;18.30;99.90;;;;;;5012205;28;20650;-60
2022/05/08 09:52:38;;;;;;;5.77;5.27;;;18.30;99.90;;;;;;5012297;28;20175;-52
2022/05/08 09:55:04;;;;;;;7.37;5.30;;;18.40;99.90;;;;;;5011430;28;20176;-57
2022/05/08 09:57:31;;;;;;;5.80;4.90;;;18.70;99.90;;;;;;4997241;28;20320;-54
2022/05/08 09:59:58;;;;;;;6.63;6.00;;;18.80;99.90;;;;;;4996726;28;20177;-54
2022/05/08 10:02:24;;;;;;;6.33;5.47;;;18.90;99.90;;;;;;5011891;28;20703;-51
2022/05/08 10:04:50;;;;;;;6.17;5.57;;;19.00;99.90;;;;;;5007953;28;20176;-55
2022/05/08 10:07:15;;;;;;;5.60;5.10;;;18.80;99.90;;;;;;5009922;28;20764;-56
2022/05/08 10:15:20;;;;;;;5.40;4.00;;;18.50;99.90;;;;;;5011010;28;20212;-54
2022/05/08 10:17:45;;;;;;;5.50;4.20;;;18.30;99.90;;;;;;5011003;28;20755;-58
2022/05/08 10:20:11;;;;;;;4.47;4.07;;;18.30;99.90;;;;;;5023533;28;20270;-52
2022/05/08 10:22:49;;;;;;;4.30;3.90;;;18.20;99.90;;;;;;5022531;28;20669;-54
2022/05/08 10:25:16;;;;;;;6.50;4.10;;;18.40;99.90;;;;;;5008379;28;20180;-52
2022/05/08 10:28:05;;;;;;;4.70;4.03;;;18.80;99.90;;;;;;5011390;28;20196;-53
2022/05/08 10:30:31;;;;;;;6.93;4.17;;;19.10;99.90;;;;;;5004964;28;20193;-55
2022/05/08 10:32:57;;;;;;;4.10;3.70;;;19.10;99.90;;;;;;5003987;28;20595;-55
2022/05/08 10:35:28;;;;;;;4.77;4.37;;;19.20;99.90;;;;;;5002806;28;20262;-59
2022/05/08 10:38:02;;;;;;;7.87;4.30;;;19.40;99.90;;;;;;5008155;28;20223;-55
2022/05/08 10:40:28;;;;;;;4.83;4.43;;;19.70;99.90;;;;;;5005771;28;20262;-53
2022/05/08 10:42:55;;;;;;;7.10;5.20;;;19.30;99.90;;;;;;5000229;28;20292;-58
2022/05/08 10:45:33;;;;;;;4.53;4.00;;;19.20;99.90;;;;;;5001021;28;20211;-56
2022/05/08 10:48:10;;;;;;;4.50;4.10;;;19.30;99.90;;;;;;5002035;28;20203;-55
2022/05/08 10:50:37;;;;;;;4.47;4.07;;;20.50;99.90;;;;;;5005884;28;20169;-55
2022/05/08 10:53:04;;;;;;;4.63;4.00;;;19.50;99.90;;;;;;5004375;28;20184;-55
2022/05/08 10:55:29;;;;;;;4.30;3.90;;;19.40;99.90;;;;;;5003996;28;20173;-56
2022/05/08 10:57:55;;;;;;;4.47;4.07;;;19.60;99.90;;;;;;5009050;28;20209;-54
2022/05/08 11:00:30;;;;;;;6.83;4.30;;;19.50;99.90;;;;;;5005345;28;20173;-53
2022/05/08 11:03:00;;;;;;;7.53;4.60;;;19.50;99.90;;;;;;4971219;28;20283;-60
2022/05/08 11:05:31;;;;;;;5.53;4.17;;;19.60;99.90;;;;;;5005233;28;20253;-55
2022/05/08 11:08:03;;;;;;;5.07;3.80;;;19.40;99.90;;;;;;5005614;28;20294;-51
2022/05/08 11:10:29;;;;;;;4.37;3.47;;;19.10;99.90;;;;;;5005809;28;20211;-58
2022/05/08 11:13:05;;;;;;;6.07;4.07;;;19.30;99.90;;;;;;5013586;28;20180;-56
2022/05/08 11:15:34;;;;;;;4.43;4.00;;;19.40;99.90;;;;;;5014686;28;20174;-58
2022/05/08 11:18:17;;;;;;;4.70;4.20;;;19.10;99.90;;;;;;5013736;28;20200;-50
2022/05/08 11:20:44;;;;;;;4.80;4.00;;;18.80;99.90;;;;;;5005923;28;20184;-56
2022/05/08 11:23:15;;;;;;;4.83;4.33;;;18.90;99.90;;;;;;4985696;28;20198;-56
2022/05/08 11:25:41;;;;;;;6.33;4.07;;;19.00;99.90;;;;;;4991150;28;20266;-53
2022/05/08 11:28:15;;;;;;;5.33;4.50;;;19.10;99.90;;;;;;5009639;28;20200;-54
2022/05/08 11:30:42;;;;;;;4.63;4.10;;;18.90;99.90;;;;;;5005907;28;20168;-56
2022/05/08 11:36:06;;;;;;;6.57;4.10;;;18.60;99.90;;;;;;5005598;28;20184;-53
2022/05/08 11:38:44;;;;;;;4.50;4.07;;;18.40;99.90;;;;;;5007018;28;20199;-55
2022/05/08 11:41:15;;;;;;;4.80;4.30;;;18.50;99.90;;;;;;5007892;28;20263;-62
2022/05/08 11:43:46;;;;;;;4.60;4.20;;;18.50;99.90;;;;;;5006468;28;20173;-58
2022/05/08 11:46:16;;;;;;;5.00;4.27;;;18.60;99.90;;;;;;5005179;28;20164;-52
2022/05/08 11:48:43;;;;;;;4.90;4.50;;;18.80;99.90;;;;;;5004657;28;20170;-52
2022/05/08 11:51:20;;;;;;;5.40;4.70;;;19.10;99.90;;;;;;4994579;28;20665;-56
2022/05/08 11:53:49;;;;;;;7.33;4.60;;;18.90;99.90;;;;;;4994537;28;20199;-61
2022/05/08 11:56:30;;;;;;;5.03;4.40;;;18.80;99.90;;;;;;4994553;28;20586;-56
2022/05/08 11:58:58;;;;;;;5.03;4.40;;;18.90;99.90;;;;;;4987852;28;20235;-54
2022/05/08 12:01:26;;;;;;;4.20;3.80;;;18.80;99.90;;;;;;5013882;28;20200;-57
2022/05/08 12:03:53;;;;;;;4.73;4.33;;;18.80;99.90;;;;;;5013923;28;20165;-60
2022/05/08 12:06:18;;;;;;;5.17;4.50;;;19.00;99.90;;;;;;5007480;28;20210;-61
2022/05/08 12:08:44;;;;;;;5.40;4.17;;;19.30;99.90;;;;;;5006149;28;20169;-57
2022/05/08 12:11:28;;;;;;;4.30;3.90;;;19.50;99.90;;;;;;5014050;28;20167;-56
2022/05/08 12:14:05;;;;;;;4.67;4.10;;;19.70;99.90;;;;;;5013634;28;20517;-59
2022/05/08 12:16:32;;;;;;;4.53;4.03;;;19.70;99.90;;;;;;5004016;28;20209;-52
2022/05/08 12:19:11;;;;;;;4.87;4.47;;;19.70;99.90;;;;;;4994259;28;20173;-59
2022/05/08 12:21:39;;;;;;;4.70;4.23;;;19.50;99.90;;;;;;4994333;28;20280;-58
2022/05/08 12:24:14;;;;;;;4.73;4.33;;;19.60;99.90;;;;;;4993770;28;20269;-57
2022/05/08 12:26:39;;;;;;;5.00;4.50;;;19.60;99.90;;;;;;4994284;28;20232;-58
2022/05/08 12:29:07;;;;;;;4.50;4.03;;;19.80;99.90;;;;;;4993991;28;20201;-58
2022/05/08 12:31:33;;;;;;;4.77;4.17;;;19.90;99.90;;;;;;4994135;28;20212;-57
2022/05/08 12:33:59;;;;;;;4.73;4.33;;;20.10;99.90;;;;;;5012056;28;20181;-55
2022/05/08 12:36:26;;;;;;;4.50;4.10;;;20.20;99.90;;;;;;5013441;28;20621;-55
2022/05/08 12:38:51;;;;;;;4.30;3.90;;;20.40;99.90;;;;;;5013417;28;20538;-55
2022/05/08 12:41:17;;;;;;;7.95;4.47;;;20.70;99.90;;;;;;4995981;28;20215;-55
2022/05/08 12:43:43;;;;;;;4.97;4.40;;;20.90;99.90;;;;;;5013125;28;20173;-51
2022/05/08 12:46:09;;;;;;;6.03;4.30;;;20.50;99.90;;;;;;5013201;28;20176;-54
2022/05/08 12:48:34;;;;;;;4.60;4.07;;;20.10;99.90;;;;;;5013258;28;20165;-53
2022/05/08 12:51:00;;;;;;;4.40;4.00;;;20.10;99.90;;;;;;5013465;28;20262;-54
2022/05/08 12:53:25;;;;;;;5.55;4.10;;;20.30;99.90;;;;;;5012938;28;20176;-55
2022/05/08 12:55:51;;;;;;;5.85;4.15;;;20.40;99.90;;;;;;5012911;28;20173;-53
2022/05/08 13:01:01;;;;;;;4.70;4.20;;;20.70;99.90;;;;;;5013084;28;20231;-57
2022/05/08 13:03:26;;;;;;;4.38;3.97;;;21.00;99.90;;;;;;5012816;28;20179;-55
2022/05/08 13:05:52;;;;;;;5.15;4.00;;;21.10;99.90;;;;;;5012802;28;20172;-53
2022/05/08 13:08:18;;;;;;;4.80;4.30;;;21.20;99.90;;;;;;5012725;28;20251;-55
2022/05/08 13:10:44;;;;;;;4.70;4.28;;;21.30;99.90;;;;;;5011878;28;20632;-50
2022/05/08 13:13:10;;;;;;;5.55;3.83;;;21.40;99.90;;;;;;5012986;28;20173;-52
2022/05/08 13:15:36;;;;;;;4.55;4.15;;;21.70;99.90;;;;;;5012497;28;20226;-52
2022/05/08 13:18:01;;;;;;;4.45;4.05;;;21.80;99.90;;;;;;5012585;28;20198;-54
2022/05/08 13:20:27;;;;;;;3.97;3.67;;;22.00;99.90;;;;;;5012841;28;20190;-58
2022/05/08 13:22:52;;;;;;;4.75;4.30;;;22.20;99.90;;;;;;5012402;28;20203;-52